Time,TemperatureF,DewpointF,PressureIn,WindDirection,WindDirectionDegrees,WindSpeedMPH,WindSpeedGustMPH,Humidity,HourlyPrecipIn,Conditions,Clouds,dailyrainin,SoftwareType,DateUTC
2013-09-26 00:00:00,51.7,50.6,30.01,NNW,346,0.0,0.0,96,0.00,,,0.00,Wunderground v.1.15,2013-09-26 04:00:00,
2013-09-26 00:05:00,51.7,50.6,30.01,NNW,346,0.0,0.0,96,0.00,,,0.00,Wunderground v.1.15,2013-09-26 04:05:00,
2013-09-26 00:10:00,51.7,50.6,30.02,NNW,346,0.0,0.0,96,0.00,,,0.00,Wunderground v.1.15,2013-09-26 04:10:00,
2013-09-26 00:15:00,51.7,50.6,30.02,NNW,346,0.0,0.0,96,0.00,,,0.00,Wunderground v.1.15,2013-09-26 04:15:00,
2013-09-26 00:20:00,51.7,50.6,30.02,NNW,346,0.0,0.0,96,0.00,,,0.00,Wunderground v.1.15,2013-09-26 04:20:00,
2013-09-26 00:25:00,51.7,50.6,30.02,NNW,346,0.0,0.0,96,0.00,,,0.00,Wunderground v.1.15,2013-09-26 04:25:00,
2013-09-26 00:35:00,51.7,50.6,30.02,NNW,346,0.0,0.0,96,0.00,,,0.00,Wunderground v.1.15,2013-09-26 04:35:00,
2013-09-26 00:40:00,51.9,51.1,30.02,NNW,346,0.0,0.0,97,0.00,,,0.00,Wunderground v.1.15,2013-09-26 04:40:00,
2013-09-26 00:45:00,51.9,51.1,30.02,NNW,346,0.0,0.0,97,0.00,,,0.00,Wunderground v.1.15,2013-09-26 04:45:00,
2013-09-26 00:55:00,51.9,51.1,30.02,NNW,346,0.0,0.0,97,0.00,,,0.00,Wunderground v.1.15,2013-09-26 04:55:00,
2013-09-26 01:00:00,51.7,50.9,30.02,NNW,346,0.0,0.0,97,0.00,,,0.00,Wunderground v.1.15,2013-09-26 05:00:00,
2013-09-26 01:10:00,51.7,50.9,30.02,NNW,346,0.0,0.0,97,0.00,,,0.00,Wunderground v.1.15,2013-09-26 05:10:00,
2013-09-26 01:15:00,51.7,50.6,30.02,NNW,346,0.0,0.0,96,0.00,,,0.00,Wunderground v.1.15,2013-09-26 05:15:00,
2013-09-26 01:20:00,51.7,50.6,30.02,NNW,346,0.0,0.0,96,0.00,,,0.00,Wunderground v.1.15,2013-09-26 05:20:00,
2013-09-26 01:30:00,51.6,50.5,30.02,NNW,346,0.0,0.0,96,0.00,,,0.00,Wunderground v.1.15,2013-09-26 05:30:00,
2013-09-26 01:35:00,51.6,50.5,30.02,NNW,346,0.0,0.0,96,0.00,,,0.00,Wunderground v.1.15,2013-09-26 05:35:00,
2013-09-26 01:40:00,51.6,50.5,30.02,NNW,346,0.0,0.0,96,0.00,,,0.00,Wunderground v.1.15,2013-09-26 05:40:00,
2013-09-26 01:45:00,51.4,50.3,30.02,NNW,346,0.0,0.0,96,0.00,,,0.00,Wunderground v.1.15,2013-09-26 05:45:00,
2013-09-26 01:55:00,51.4,50.3,30.02,NNW,346,0.0,0.0,96,0.00,,,0.00,Wunderground v.1.15,2013-09-26 05:55:00,
2013-09-26 02:00:00,51.3,50.2,30.02,NNW,346,0.0,0.0,96,0.00,,,0.00,Wunderground v.1.15,2013-09-26 06:00:00,
2013-09-26 02:10:00,51.3,50.2,30.02,NNW,346,0.0,0.0,96,0.00,,,0.00,Wunderground v.1.15,2013-09-26 06:10:00,
2013-09-26 02:15:00,51.3,50.2,30.02,NNW,346,0.0,0.0,96,0.00,,,0.00,Wunderground v.1.15,2013-09-26 06:15:00,
2013-09-26 02:20:00,51.1,49.7,30.02,NNW,346,0.0,0.0,95,0.00,,,0.00,Wunderground v.1.15,2013-09-26 06:20:00,
2013-09-26 02:25:00,51.1,49.7,30.03,NNW,346,0.0,0.0,95,0.00,,,0.00,Wunderground v.1.15,2013-09-26 06:25:00,
2013-09-26 02:35:00,51.1,49.7,30.03,NNW,346,0.0,0.0,95,0.00,,,0.00,Wunderground v.1.15,2013-09-26 06:35:00,
2013-09-26 02:40:00,51.1,49.7,30.02,NNW,346,0.0,0.0,95,0.00,,,0.00,Wunderground v.1.15,2013-09-26 06:40:00,
2013-09-26 02:45:00,51.1,49.7,30.02,NNW,346,0.0,0.0,95,0.00,,,0.00,Wunderground v.1.15,2013-09-26 06:45:00,
2013-09-26 02:55:00,51.0,49.6,30.03,NNW,346,0.0,0.0,95,0.00,,,0.00,Wunderground v.1.15,2013-09-26 06:55:00,
2013-09-26 03:00:00,51.0,49.6,30.03,NNW,346,0.0,0.0,95,0.00,,,0.00,Wunderground v.1.15,2013-09-26 07:00:00,
2013-09-26 03:10:00,51.0,49.6,30.03,NNW,346,0.0,0.0,95,0.00,,,0.00,Wunderground v.1.15,2013-09-26 07:10:00,
2013-09-26 03:15:00,50.8,49.1,30.03,NNW,346,0.0,0.0,94,0.00,,,0.00,Wunderground v.1.15,2013-09-26 07:15:00,
2013-09-26 03:20:00,50.8,49.1,30.03,NNW,346,0.0,0.0,94,0.00,,,0.00,Wunderground v.1.15,2013-09-26 07:20:00,
2013-09-26 03:25:00,50.8,49.1,30.03,NNW,346,0.0,0.0,94,0.00,,,0.00,Wunderground v.1.15,2013-09-26 07:25:00,
2013-09-26 03:35:00,50.5,48.8,30.03,NNW,346,0.0,0.0,94,0.00,,,0.00,Wunderground v.1.15,2013-09-26 07:35:00,
2013-09-26 03:40:00,50.4,48.7,30.04,NNW,346,0.0,0.0,94,0.00,,,0.00,Wunderground v.1.15,2013-09-26 07:40:00,
2013-09-26 03:45:00,50.2,48.5,30.04,NNW,346,0.0,0.0,94,0.00,,,0.00,Wunderground v.1.15,2013-09-26 07:45:00,
2013-09-26 03:55:00,49.9,48.2,30.04,NNW,346,0.0,0.0,94,0.00,,,0.00,Wunderground v.1.15,2013-09-26 07:55:00,
2013-09-26 04:00:00,49.8,48.1,30.04,NNW,346,0.0,0.0,94,0.00,,,0.00,Wunderground v.1.15,2013-09-26 08:00:00,
2013-09-26 04:05:00,49.8,48.1,30.04,NNW,346,0.0,0.0,94,0.00,,,0.00,Wunderground v.1.15,2013-09-26 08:05:00,
2013-09-26 04:15:00,49.6,48.2,30.04,NNW,346,0.0,0.0,95,0.00,,,0.00,Wunderground v.1.15,2013-09-26 08:15:00,
2013-09-26 04:20:00,49.5,48.1,30.04,NNW,346,0.0,0.0,95,0.00,,,0.00,Wunderground v.1.15,2013-09-26 08:20:00,
2013-09-26 04:25:00,49.4,48.0,30.04,NNW,346,0.0,0.0,95,0.00,,,0.00,Wunderground v.1.15,2013-09-26 08:25:00,
2013-09-26 04:35:00,49.4,48.3,30.04,NNW,346,0.0,0.0,96,0.00,,,0.00,Wunderground v.1.15,2013-09-26 08:35:00,
2013-09-26 04:40:00,49.2,48.1,30.04,NNW,346,0.0,0.0,96,0.00,,,0.00,Wunderground v.1.15,2013-09-26 08:40:00,
2013-09-26 04:45:00,49.1,47.7,30.04,NNW,346,0.0,0.0,95,0.00,,,0.00,Wunderground v.1.15,2013-09-26 08:45:00,
2013-09-26 04:50:00,49.1,47.7,30.04,NNW,346,0.0,0.0,95,0.00,,,0.00,Wunderground v.1.15,2013-09-26 08:50:00,
2013-09-26 05:00:00,48.9,47.5,30.04,NNW,346,0.0,0.0,95,0.00,,,0.00,Wunderground v.1.15,2013-09-26 09:00:00,
2013-09-26 05:05:00,48.8,47.4,30.05,NNW,346,0.0,0.0,95,0.00,,,0.00,Wunderground v.1.15,2013-09-26 09:05:00,
2013-09-26 05:10:00,48.8,47.7,30.04,NNW,346,0.0,0.0,96,0.00,,,0.00,Wunderground v.1.15,2013-09-26 09:10:00,
2013-09-26 05:20:00,48.8,47.7,30.05,NNW,346,0.0,0.0,96,0.00,,,0.00,Wunderground v.1.15,2013-09-26 09:20:00,
2013-09-26 05:25:00,48.6,47.5,30.05,NNW,346,0.0,0.0,96,0.00,,,0.00,Wunderground v.1.15,2013-09-26 09:25:00,
2013-09-26 05:30:00,48.6,47.5,30.05,NNW,346,0.0,0.0,96,0.00,,,0.00,Wunderground v.1.15,2013-09-26 09:30:00,
2013-09-26 05:40:00,48.5,47.4,30.05,NNW,346,0.0,0.0,96,0.00,,,0.00,Wunderground v.1.15,2013-09-26 09:40:00,
2013-09-26 05:45:00,48.5,47.4,30.04,NNW,346,0.0,0.0,96,0.00,,,0.00,Wunderground v.1.15,2013-09-26 09:45:00,
2013-09-26 05:50:00,48.5,47.4,30.05,NNW,346,0.0,0.0,96,0.00,,,0.00,Wunderground v.1.15,2013-09-26 09:50:00,
2013-09-26 05:55:00,48.3,47.2,30.05,NNW,346,0.0,0.0,96,0.00,,,0.00,Wunderground v.1.15,2013-09-26 09:55:00,
2013-09-26 06:05:00,48.5,47.4,30.05,NNW,346,0.0,0.0,96,0.00,,,0.00,Wunderground v.1.15,2013-09-26 10:05:00,
2013-09-26 06:10:00,48.5,47.4,30.05,NNW,346,0.0,0.0,96,0.00,,,0.00,Wunderground v.1.15,2013-09-26 10:10:00,
2013-09-26 06:15:00,48.3,47.2,30.05,NNW,346,0.0,0.0,96,0.00,,,0.00,Wunderground v.1.15,2013-09-26 10:15:00,
2013-09-26 06:25:00,48.3,47.2,30.06,NNW,346,0.0,0.0,96,0.00,,,0.00,Wunderground v.1.15,2013-09-26 10:25:00,
2013-09-26 06:30:00,48.3,47.2,30.06,NNW,346,0.0,0.0,96,0.00,,,0.00,Wunderground v.1.15,2013-09-26 10:30:00,
2013-09-26 06:35:00,48.3,47.2,30.06,NNW,346,0.0,0.0,96,0.00,,,0.00,Wunderground v.1.15,2013-09-26 10:35:00,
2013-09-26 06:45:00,48.3,47.2,30.06,NNW,346,0.0,0.0,96,0.00,,,0.00,Wunderground v.1.15,2013-09-26 10:45:00,
2013-09-26 06:50:00,48.3,47.2,30.06,NNW,346,0.0,0.0,96,0.00,,,0.00,Wunderground v.1.15,2013-09-26 10:50:00,
2013-09-26 06:55:00,48.3,47.2,30.06,NNW,346,0.0,0.0,96,0.00,,,0.00,Wunderground v.1.15,2013-09-26 10:55:00,
2013-09-26 07:05:00,48.5,47.4,30.06,NNW,346,0.0,0.0,96,0.00,,,0.00,Wunderground v.1.15,2013-09-26 11:05:00,
2013-09-26 07:10:00,48.5,47.4,30.07,NNW,346,0.0,0.0,96,0.00,,,0.00,Wunderground v.1.15,2013-09-26 11:10:00,
2013-09-26 07:15:00,48.6,47.5,30.07,NNW,346,0.0,0.0,96,0.00,,,0.00,Wunderground v.1.15,2013-09-26 11:15:00,
2013-09-26 07:25:00,48.6,47.5,30.07,NNW,346,0.0,0.0,96,0.00,,,0.00,Wunderground v.1.15,2013-09-26 11:25:00,
2013-09-26 07:30:00,48.8,47.7,30.07,NNW,346,0.0,0.0,96,0.00,,,0.00,Wunderground v.1.15,2013-09-26 11:30:00,
2013-09-26 07:35:00,48.8,47.7,30.07,NNW,346,0.0,0.0,96,0.00,,,0.00,Wunderground v.1.15,2013-09-26 11:35:00,
2013-09-26 07:40:00,48.9,47.8,30.07,NNW,346,0.0,0.0,96,0.00,,,0.00,Wunderground v.1.15,2013-09-26 11:40:00,
2013-09-26 07:50:00,49.1,48.0,30.07,NNW,346,0.0,0.0,96,0.00,,,0.00,Wunderground v.1.15,2013-09-26 11:50:00,
2013-09-26 07:55:00,49.2,47.8,30.07,NNW,346,0.0,0.0,95,0.00,,,0.00,Wunderground v.1.15,2013-09-26 11:55:00,
2013-09-26 08:00:00,49.4,48.0,30.08,NNW,346,0.0,0.0,95,0.00,,,0.00,Wunderground v.1.15,2013-09-26 12:00:00,
2013-09-26 08:10:00,49.5,47.3,30.08,NNW,346,0.0,0.0,92,0.00,,,0.00,Wunderground v.1.15,2013-09-26 12:10:00,
2013-09-26 08:15:00,49.6,46.5,30.08,NNW,346,0.0,0.0,89,0.00,,,0.00,Wunderground v.1.15,2013-09-26 12:15:00,
2013-09-26 08:25:00,50.1,46.4,30.08,NNW,346,0.0,0.0,87,0.00,,,0.00,Wunderground v.1.15,2013-09-26 12:25:00,
2013-09-26 08:30:00,50.4,46.7,30.08,NNW,346,0.0,0.0,87,0.00,,,0.00,Wunderground v.1.15,2013-09-26 12:30:00,
2013-09-26 08:35:00,50.7,46.0,30.08,NNW,346,0.0,0.0,84,0.00,,,0.00,Wunderground v.1.15,2013-09-26 12:35:00,
2013-09-26 08:45:00,51.1,46.7,30.09,NNW,346,0.0,0.0,85,0.00,,,0.00,Wunderground v.1.15,2013-09-26 12:45:00,
2013-09-26 08:50:00,51.3,46.6,30.09,NNW,346,0.0,0.0,84,0.00,,,0.00,Wunderground v.1.15,2013-09-26 12:50:00,
2013-09-26 08:55:00,51.6,46.9,30.09,NNW,346,0.0,0.0,84,0.00,,,0.00,Wunderground v.1.15,2013-09-26 12:55:00,
2013-09-26 09:00:00,51.9,47.5,30.09,NNW,346,0.0,0.0,85,0.00,,,0.00,Wunderground v.1.15,2013-09-26 13:00:00,
2013-09-26 09:10:00,52.2,46.9,30.09,NNW,346,0.0,1.0,82,0.00,,,0.00,Wunderground v.1.15,2013-09-26 13:10:00,
2013-09-26 09:15:00,52.3,46.3,30.09,NNW,346,0.0,1.0,80,0.00,,,0.00,Wunderground v.1.15,2013-09-26 13:15:00,
2013-09-26 09:25:00,52.8,46.8,30.10,NNW,346,0.0,1.0,80,0.00,,,0.00,Wunderground v.1.15,2013-09-26 13:25:00,
2013-09-26 09:30:00,52.9,46.9,30.10,NNW,346,0.0,1.0,80,0.00,,,0.00,Wunderground v.1.15,2013-09-26 13:30:00,
2013-09-26 09:35:00,53.1,46.8,30.10,NNW,346,0.0,1.0,79,0.00,,,0.00,Wunderground v.1.15,2013-09-26 13:35:00,
2013-09-26 09:40:00,53.2,46.9,30.10,NNW,346,0.0,1.0,79,0.00,,,0.00,Wunderground v.1.15,2013-09-26 13:40:00,
2013-09-26 09:50:00,53.8,48.8,30.10,NNW,346,0.0,1.0,83,0.00,,,0.00,Wunderground v.1.15,2013-09-26 13:50:00,
2013-09-26 09:55:00,53.9,47.5,30.10,NNW,346,0.0,1.0,79,0.00,,,0.00,Wunderground v.1.15,2013-09-26 13:55:00,
2013-09-26 10:00:00,54.2,47.5,30.10,NNW,346,0.0,1.0,78,0.00,,,0.00,Wunderground v.1.15,2013-09-26 14:00:00,
2013-09-26 10:10:00,54.8,47.4,30.10,North,350,1.0,1.0,76,0.00,,,0.00,Wunderground v.1.15,2013-09-26 14:10:00,
2013-09-26 10:20:00,55.1,47.7,30.10,North,351,0.0,1.0,76,0.00,,,0.00,Wunderground v.1.15,2013-09-26 14:20:00,
2013-09-26 10:25:00,55.3,45.3,30.10,NW,317,1.0,1.0,69,0.00,,,0.00,Wunderground v.1.15,2013-09-26 14:25:00,
2013-09-26 10:30:00,55.6,44.0,30.10,NW,321,1.0,1.0,65,0.00,,,0.00,Wunderground v.1.15,2013-09-26 14:30:00,
2013-09-26 10:35:00,55.7,45.7,30.10,North,351,1.0,1.0,69,0.00,,,0.00,Wunderground v.1.15,2013-09-26 14:35:00,
2013-09-26 10:45:00,55.9,47.4,30.10,NNW,330,1.0,2.0,73,0.00,,,0.00,Wunderground v.1.15,2013-09-26 14:45:00,
2013-09-26 10:50:00,55.9,47.0,30.10,NNW,339,1.0,1.0,72,0.00,,,0.00,Wunderground v.1.15,2013-09-26 14:50:00,
2013-09-26 10:55:00,55.9,46.3,30.10,South,178,1.0,1.0,70,0.00,,,0.00,Wunderground v.1.15,2013-09-26 14:55:00,
2013-09-26 11:00:00,56.0,45.6,30.10,North,355,1.0,4.0,68,0.00,,,0.00,Wunderground v.1.15,2013-09-26 15:00:00,
2013-09-26 11:10:00,56.0,44.4,30.09,North,350,3.0,3.0,65,0.00,,,0.00,Wunderground v.1.15,2013-09-26 15:10:00,
2013-09-26 11:15:00,56.3,45.5,30.09,NE,53,2.0,4.0,67,0.00,,,0.00,Wunderground v.1.15,2013-09-26 15:15:00,
2013-09-26 11:25:00,56.6,46.9,30.09,NNW,345,1.0,4.0,70,0.00,,,0.00,Wunderground v.1.15,2013-09-26 15:25:00,
2013-09-26 11:30:00,56.5,45.3,30.09,NNW,345,1.0,1.0,66,0.00,,,0.00,Wunderground v.1.15,2013-09-26 15:30:00,
2013-09-26 11:35:00,56.6,45.0,30.09,NNE,25,2.0,2.0,65,0.00,,,0.00,Wunderground v.1.15,2013-09-26 15:35:00,
2013-09-26 11:40:00,56.7,45.5,30.09,North,350,2.0,2.0,66,0.00,,,0.00,Wunderground v.1.15,2013-09-26 15:40:00,
2013-09-26 11:50:00,57.6,47.5,30.09,NE,44,0.0,4.0,69,0.00,,,0.00,Wunderground v.1.15,2013-09-26 15:50:00,
2013-09-26 11:55:00,58.0,47.9,30.09,North,355,1.0,4.0,69,0.00,,,0.00,Wunderground v.1.15,2013-09-26 15:55:00,
2013-09-26 12:00:00,58.0,46.3,30.09,West,279,1.0,4.0,65,0.00,,,0.00,Wunderground v.1.15,2013-09-26 16:00:00,
2013-09-26 12:10:00,58.1,46.0,30.09,NE,36,2.0,6.0,64,0.00,,,0.00,Wunderground v.1.15,2013-09-26 16:10:00,
2013-09-26 12:15:00,58.1,47.2,30.09,NE,36,1.0,6.0,67,0.00,,,0.00,Wunderground v.1.15,2013-09-26 16:15:00,
2013-09-26 12:20:00,58.0,47.1,30.09,NNW,329,0.0,6.0,67,0.00,,,0.00,Wunderground v.1.15,2013-09-26 16:20:00,
2013-09-26 12:30:00,58.0,45.9,30.09,SSW,209,2.0,2.0,64,0.00,,,0.00,Wunderground v.1.15,2013-09-26 16:30:00,
2013-09-26 12:35:00,58.1,46.0,30.08,NNW,340,1.0,4.0,64,0.00,,,0.00,Wunderground v.1.15,2013-09-26 16:35:00,
2013-09-26 12:40:00,58.9,47.2,30.09,NW,326,1.0,6.0,65,0.00,,,0.00,Wunderground v.1.15,2013-09-26 16:40:00,
2013-09-26 12:50:00,59.3,45.4,30.08,NNE,13,2.0,2.0,60,0.00,,,0.00,Wunderground v.1.15,2013-09-26 16:50:00,
2013-09-26 12:55:00,59.5,46.9,30.08,NNW,346,1.0,6.0,63,0.00,,,0.00,Wunderground v.1.15,2013-09-26 16:55:00,
2013-09-26 13:00:00,59.5,46.5,30.08,ENE,60,1.0,1.0,62,0.00,,,0.00,Wunderground v.1.15,2013-09-26 17:00:00,
2013-09-26 13:10:00,59.5,45.6,30.08,NNW,340,3.0,3.0,60,0.00,,,0.00,Wunderground v.1.15,2013-09-26 17:10:00,
2013-09-26 13:15:00,59.5,46.5,30.07,South,171,2.0,7.0,62,0.00,,,0.00,Wunderground v.1.15,2013-09-26 17:15:00,
2013-09-26 13:20:00,59.6,46.6,30.07,NNW,340,0.0,7.0,62,0.00,,,0.00,Wunderground v.1.15,2013-09-26 17:20:00,
2013-09-26 13:30:00,60.2,50.4,30.07,North,360,1.0,7.0,70,0.00,,,0.00,Wunderground v.1.15,2013-09-26 17:30:00,
2013-09-26 13:35:00,60.2,48.4,30.07,NW,326,1.0,7.0,65,0.00,,,0.00,Wunderground v.1.15,2013-09-26 17:35:00,
2013-09-26 13:40:00,60.1,48.7,30.07,NNW,341,1.0,1.0,66,0.00,,,0.00,Wunderground v.1.15,2013-09-26 17:40:00,
2013-09-26 13:50:00,59.9,47.3,30.07,North,360,1.0,1.0,63,0.00,,,0.00,Wunderground v.1.15,2013-09-26 17:50:00,
2013-09-26 13:55:00,60.1,46.6,30.07,NNW,344,0.0,7.0,61,0.00,,,0.00,Wunderground v.1.15,2013-09-26 17:55:00,
2013-09-26 14:00:00,60.7,47.6,30.07,WNW,286,1.0,7.0,62,0.00,,,0.00,Wunderground v.1.15,2013-09-26 18:00:00,
2013-09-26 14:10:00,60.5,47.4,30.06,WNW,303,1.0,1.0,62,0.00,,,0.00,Wunderground v.1.15,2013-09-26 18:10:00,
2013-09-26 14:15:00,60.1,48.3,30.06,SSW,205,0.0,3.0,65,0.00,,,0.00,Wunderground v.1.15,2013-09-26 18:15:00,
2013-09-26 14:20:00,59.8,48.0,30.06,SSW,205,1.0,3.0,65,0.00,,,0.00,Wunderground v.1.15,2013-09-26 18:20:00,
2013-09-26 14:30:00,60.2,48.8,30.06,NNW,342,1.0,3.0,66,0.00,,,0.00,Wunderground v.1.15,2013-09-26 18:30:00,
2013-09-26 14:35:00,60.1,49.1,30.06,North,350,1.0,3.0,67,0.00,,,0.00,Wunderground v.1.15,2013-09-26 18:35:00,
2013-09-26 14:40:00,59.9,50.1,30.06,North,350,0.0,3.0,70,0.00,,,0.00,Wunderground v.1.15,2013-09-26 18:40:00,
2013-09-26 14:50:00,59.9,47.7,30.06,NE,47,0.0,3.0,64,0.00,,,0.00,Wunderground v.1.15,2013-09-26 18:50:00,
2013-09-26 14:55:00,60.2,49.2,30.06,NNW,331,0.0,3.0,67,0.00,,,0.00,Wunderground v.1.15,2013-09-26 18:55:00,
2013-09-26 15:00:00,60.7,50.1,30.05,SW,217,1.0,1.0,68,0.00,,,0.00,Wunderground v.1.15,2013-09-26 19:00:00,
2013-09-26 15:10:00,60.7,49.3,30.05,NNW,336,0.0,3.0,66,0.00,,,0.00,Wunderground v.1.15,2013-09-26 19:10:00,
2013-09-26 15:15:00,60.7,48.4,30.05,SSW,209,0.0,3.0,64,0.00,,,0.00,Wunderground v.1.15,2013-09-26 19:15:00,
2013-09-26 15:20:00,60.9,51.0,30.05,North,350,1.0,1.0,70,0.00,,,0.00,Wunderground v.1.15,2013-09-26 19:20:00,
2013-09-26 15:30:00,61.2,47.6,30.05,NNW,346,1.0,1.0,61,0.00,,,0.00,Wunderground v.1.15,2013-09-26 19:30:00,
2013-09-26 15:35:00,61.3,48.2,30.05,NNW,332,2.0,3.0,62,0.00,,,0.00,Wunderground v.1.15,2013-09-26 19:35:00,
2013-09-26 15:40:00,61.6,48.4,30.05,NNW,339,2.0,2.0,62,0.00,,,0.00,Wunderground v.1.15,2013-09-26 19:40:00,
2013-09-26 15:45:00,61.3,51.4,30.05,NNW,332,1.0,3.0,70,0.00,,,0.00,Wunderground v.1.15,2013-09-26 19:45:00,
2013-09-26 15:55:00,60.7,50.9,30.05,NNW,332,0.0,3.0,70,0.00,,,0.00,Wunderground v.1.15,2013-09-26 19:55:00,
2013-09-26 16:00:00,60.5,48.3,30.05,North,5,0.0,3.0,64,0.00,,,0.00,Wunderground v.1.15,2013-09-26 20:00:00,
2013-09-26 16:10:00,60.5,50.7,30.05,SW,235,1.0,1.0,70,0.00,,,0.00,Wunderground v.1.15,2013-09-26 20:10:00,
2013-09-26 16:15:00,60.4,50.2,30.05,WSW,246,0.0,2.0,69,0.00,,,0.00,Wunderground v.1.15,2013-09-26 20:15:00,
2013-09-26 16:20:00,60.2,51.1,30.05,WSW,246,0.0,3.0,72,0.00,,,0.00,Wunderground v.1.15,2013-09-26 20:20:00,
2013-09-26 16:30:00,59.8,51.9,30.05,WSW,246,0.0,3.0,75,0.00,,,0.00,Wunderground v.1.15,2013-09-26 20:30:00,
2013-09-26 16:40:00,59.5,51.9,30.05,NNW,336,0.0,3.0,76,0.00,,,0.00,Wunderground v.1.15,2013-09-26 20:40:00,
2013-09-26 16:45:00,59.3,52.4,30.05,NNW,336,0.0,3.0,78,0.00,,,0.00,Wunderground v.1.15,2013-09-26 20:45:00,
2013-09-26 16:50:00,59.3,53.1,30.05,NW,310,1.0,3.0,80,0.00,,,0.00,Wunderground v.1.15,2013-09-26 20:50:00,
2013-09-26 16:55:00,59.2,53.0,30.05,NW,310,1.0,3.0,80,0.00,,,0.00,Wunderground v.1.15,2013-09-26 20:55:00,
2013-09-26 17:05:00,58.7,53.5,30.06,NW,310,0.0,6.0,83,0.00,,,0.00,Wunderground v.1.15,2013-09-26 21:05:00,
2013-09-26 17:10:00,58.4,52.3,30.06,NW,310,0.0,6.0,80,0.00,,,0.00,Wunderground v.1.15,2013-09-26 21:10:00,
2013-09-26 17:20:00,58.3,53.5,30.06,NW,321,0.0,6.0,84,0.00,,,0.00,Wunderground v.1.15,2013-09-26 21:20:00,
2013-09-26 17:25:00,58.0,53.5,30.06,NW,321,0.0,6.0,85,0.00,,,0.00,Wunderground v.1.15,2013-09-26 21:25:00,
2013-09-26 17:30:00,57.8,53.6,30.06,NW,321,0.0,6.0,86,0.00,,,0.00,Wunderground v.1.15,2013-09-26 21:30:00,
2013-09-26 17:35:00,57.5,53.3,30.06,NW,321,0.0,6.0,86,0.00,,,0.00,Wunderground v.1.15,2013-09-26 21:35:00,
2013-09-26 17:45:00,57.0,53.2,30.06,NW,321,0.0,6.0,87,0.00,,,0.00,Wunderground v.1.15,2013-09-26 21:45:00,
2013-09-26 17:50:00,56.9,53.4,30.06,NW,321,0.0,6.0,88,0.00,,,0.00,Wunderground v.1.15,2013-09-26 21:50:00,
2013-09-26 17:55:00,56.7,53.5,30.06,NW,321,0.0,6.0,89,0.00,,,0.00,Wunderground v.1.15,2013-09-26 21:55:00,
2013-09-26 18:05:00,56.5,53.6,30.07,NW,321,0.0,6.0,90,0.00,,,0.00,Wunderground v.1.15,2013-09-26 22:05:00,
2013-09-26 18:10:00,56.3,53.7,30.07,NW,321,0.0,0.0,91,0.00,,,0.00,Wunderground v.1.15,2013-09-26 22:10:00,
2013-09-26 18:15:00,56.2,53.6,30.07,NW,321,0.0,0.0,91,0.00,,,0.00,Wunderground v.1.15,2013-09-26 22:15:00,
2013-09-26 18:25:00,55.7,52.8,30.08,NW,321,0.0,0.0,90,0.00,,,0.00,Wunderground v.1.15,2013-09-26 22:25:00,
2013-09-26 18:30:00,55.6,52.7,30.08,NW,321,0.0,0.0,90,0.00,,,0.00,Wunderground v.1.15,2013-09-26 22:30:00,
2013-09-26 18:35:00,55.3,52.7,30.08,NW,321,0.0,0.0,91,0.00,,,0.00,Wunderground v.1.15,2013-09-26 22:35:00,
2013-09-26 18:45:00,54.7,52.1,30.08,NW,321,0.0,0.0,91,0.00,,,0.00,Wunderground v.1.15,2013-09-26 22:45:00,
2013-09-26 18:50:00,54.4,51.8,30.08,NW,321,0.0,0.0,91,0.00,,,0.00,Wunderground v.1.15,2013-09-26 22:50:00,
2013-09-26 18:55:00,54.1,51.5,30.08,NW,321,0.0,0.0,91,0.00,,,0.00,Wunderground v.1.15,2013-09-26 22:55:00,
2013-09-26 19:00:00,53.8,51.2,30.08,NW,321,0.0,0.0,91,0.00,,,0.00,Wunderground v.1.15,2013-09-26 23:00:00,
2013-09-26 19:10:00,53.2,50.9,30.09,NW,321,0.0,0.0,92,0.00,,,0.00,Wunderground v.1.15,2013-09-26 23:10:00,
2013-09-26 19:20:00,52.8,50.5,30.09,NW,321,0.0,0.0,92,0.00,,,0.00,Wunderground v.1.15,2013-09-26 23:20:00,
2013-09-26 19:25:00,52.5,50.2,30.09,NW,321,0.0,0.0,92,0.00,,,0.00,Wunderground v.1.15,2013-09-26 23:25:00,
2013-09-26 19:30:00,52.2,50.2,30.09,NW,321,0.0,0.0,93,0.00,,,0.00,Wunderground v.1.15,2013-09-26 23:30:00,
2013-09-26 19:35:00,52.0,50.0,30.09,NW,321,0.0,0.0,93,0.00,,,0.00,Wunderground v.1.15,2013-09-26 23:35:00,
2013-09-26 19:45:00,51.6,49.6,30.10,NW,321,0.0,0.0,93,0.00,,,0.00,Wunderground v.1.15,2013-09-26 23:45:00,
2013-09-26 19:50:00,51.3,49.3,30.10,NW,321,0.0,0.0,93,0.00,,,0.00,Wunderground v.1.15,2013-09-26 23:50:00,
2013-09-26 19:55:00,51.1,49.1,30.10,NW,321,0.0,0.0,93,0.00,,,0.00,Wunderground v.1.15,2013-09-26 23:55:00,
2013-09-26 20:05:00,50.5,48.6,30.11,NW,321,0.0,0.0,93,0.00,,,0.00,Wunderground v.1.15,2013-09-27 00:05:00,
2013-09-26 20:15:00,50.1,48.2,30.11,NW,321,0.0,0.0,93,0.00,,,0.00,Wunderground v.1.15,2013-09-27 00:15:00,
2013-09-26 20:20:00,49.9,48.2,30.11,NW,321,0.0,0.0,94,0.00,,,0.00,Wunderground v.1.15,2013-09-27 00:20:00,
2013-09-26 20:25:00,49.8,48.1,30.11,NW,321,0.0,0.0,94,0.00,,,0.00,Wunderground v.1.15,2013-09-27 00:25:00,
2013-09-26 20:35:00,49.5,48.1,30.12,NW,321,0.0,1.0,95,0.00,,,0.00,Wunderground v.1.15,2013-09-27 00:35:00,
2013-09-26 20:40:00,49.2,47.8,30.12,NW,321,0.0,0.0,95,0.00,,,0.00,Wunderground v.1.15,2013-09-27 00:40:00,
2013-09-26 20:45:00,49.1,47.7,30.12,NW,321,0.0,0.0,95,0.00,,,0.00,Wunderground v.1.15,2013-09-27 00:45:00,
2013-09-26 20:55:00,48.8,47.4,30.13,NW,321,0.0,0.0,95,0.00,,,0.00,Wunderground v.1.15,2013-09-27 00:55:00,
2013-09-26 21:00:00,48.6,47.2,30.13,NW,321,0.0,0.0,95,0.00,,,0.00,Wunderground v.1.15,2013-09-27 01:00:00,
2013-09-26 21:10:00,48.5,47.1,30.13,NW,321,0.0,1.0,95,0.00,,,0.00,Wunderground v.1.15,2013-09-27 01:10:00,
2013-09-26 21:15:00,48.3,47.2,30.14,NW,321,0.0,1.0,96,0.00,,,0.00,Wunderground v.1.15,2013-09-27 01:15:00,
2013-09-26 21:20:00,48.2,47.1,30.14,NW,321,0.0,1.0,96,0.00,,,0.00,Wunderground v.1.15,2013-09-27 01:20:00,
2013-09-26 21:25:00,48.0,46.9,30.14,NW,321,0.0,1.0,96,0.00,,,0.00,Wunderground v.1.15,2013-09-27 01:25:00,
2013-09-26 21:35:00,47.9,46.8,30.14,NW,321,0.0,1.0,96,0.00,,,0.00,Wunderground v.1.15,2013-09-27 01:35:00,
2013-09-26 21:40:00,47.9,46.8,30.14,NW,321,0.0,1.0,96,0.00,,,0.00,Wunderground v.1.15,2013-09-27 01:40:00,
2013-09-26 21:45:00,47.9,46.8,30.15,NW,321,0.0,1.0,96,0.00,,,0.00,Wunderground v.1.15,2013-09-27 01:45:00,
2013-09-26 21:55:00,48.0,47.2,30.15,NW,321,0.0,1.0,97,0.00,,,0.00,Wunderground v.1.15,2013-09-27 01:55:00,
2013-09-26 22:00:00,48.2,47.4,30.16,NW,321,0.0,1.0,97,0.00,,,0.00,Wunderground v.1.15,2013-09-27 02:00:00,
2013-09-26 22:05:00,48.2,47.4,30.16,NW,321,0.0,1.0,97,0.00,,,0.00,Wunderground v.1.15,2013-09-27 02:05:00,
2013-09-26 22:15:00,48.3,47.5,30.16,NW,321,0.0,0.0,97,0.00,,,0.00,Wunderground v.1.15,2013-09-27 02:15:00,
2013-09-26 22:20:00,48.3,47.5,30.16,NW,321,0.0,0.0,97,0.00,,,0.00,Wunderground v.1.15,2013-09-27 02:20:00,
2013-09-26 22:30:00,48.2,47.4,30.16,NW,321,0.0,0.0,97,0.00,,,0.00,Wunderground v.1.15,2013-09-27 02:30:00,
2013-09-26 22:35:00,48.0,47.2,30.16,NW,321,0.0,0.0,97,0.00,,,0.00,Wunderground v.1.15,2013-09-27 02:35:00,
2013-09-26 22:40:00,48.0,47.2,30.16,NW,321,0.0,0.0,97,0.00,,,0.00,Wunderground v.1.15,2013-09-27 02:40:00,
2013-09-26 22:45:00,47.7,46.9,30.16,NW,321,0.0,0.0,97,0.00,,,0.00,Wunderground v.1.15,2013-09-27 02:45:00,
2013-09-26 22:55:00,47.6,46.8,30.16,NW,321,0.0,0.0,97,0.00,,,0.00,Wunderground v.1.15,2013-09-27 02:55:00,
2013-09-26 23:00:00,47.6,46.8,30.16,NW,321,0.0,0.0,97,0.00,,,0.00,Wunderground v.1.15,2013-09-27 03:00:00,
2013-09-26 23:10:00,47.7,47.2,30.16,NW,321,0.0,0.0,98,0.00,,,0.00,Wunderground v.1.15,2013-09-27 03:10:00,
2013-09-26 23:15:00,47.7,47.2,30.16,NW,321,0.0,0.0,98,0.00,,,0.00,Wunderground v.1.15,2013-09-27 03:15:00,
2013-09-26 23:20:00,47.9,47.4,30.17,NW,321,0.0,0.0,98,0.00,,,0.00,Wunderground v.1.15,2013-09-27 03:20:00,
2013-09-26 23:30:00,47.9,47.4,30.17,NW,321,0.0,0.0,98,0.00,,,0.00,Wunderground v.1.15,2013-09-27 03:30:00,
2013-09-26 23:35:00,47.9,47.4,30.17,NW,321,0.0,0.0,98,0.00,,,0.00,Wunderground v.1.15,2013-09-27 03:35:00,
2013-09-26 23:45:00,47.9,47.4,30.17,NW,321,0.0,0.0,98,0.00,,,0.00,Wunderground v.1.15,2013-09-27 03:45:00,
2013-09-26 23:50:00,48.0,47.5,30.17,NW,321,0.0,0.0,98,0.00,,,0.00,Wunderground v.1.15,2013-09-27 03:50:00,
2013-09-26 23:55:00,48.0,47.5,30.17,NW,321,0.0,0.0,98,0.00,,,0.00,Wunderground v.1.15,2013-09-27 03:55:00,